createdAt,value
2018-12-25T00:01:46.655Z,2.90
2018-12-25T00:04:35.366Z,2.90
2018-12-25T00:07:24.092Z,3.00
2018-12-25T00:10:12.810Z,3.00
2018-12-25T00:13:02.425Z,3.10
2018-12-25T00:15:51.127Z,3.10
2018-12-25T00:18:39.961Z,3.20
2018-12-25T00:21:28.685Z,3.30
2018-12-25T00:23:58.093Z,3.30
2018-12-25T00:26:46.865Z,3.40
2018-12-25T00:29:35.819Z,3.40
2018-12-25T00:32:24.782Z,3.40
2018-12-25T00:35:13.769Z,3.50
2018-12-25T00:38:02.481Z,3.50
2018-12-25T00:40:51.189Z,3.60
2018-12-25T00:43:40.061Z,3.60
2018-12-25T00:46:28.770Z,3.70
2018-12-25T00:49:18.082Z,3.70
2018-12-25T00:52:06.790Z,3.70
2018-12-25T00:54:55.508Z,3.80
2018-12-25T00:57:44.222Z,3.80
2018-12-25T01:00:32.947Z,3.80
2018-12-25T01:03:22.005Z,3.90
2018-12-25T01:06:10.776Z,3.90
2018-12-25T01:08:59.548Z,3.90
2018-12-25T01:11:48.391Z,3.90
2018-12-25T01:17:51.563Z,4.00
2018-12-25T01:20:40.280Z,4.00
2018-12-25T01:23:28.991Z,4.00
2018-12-25T01:26:10.393Z,4.10
2018-12-25T01:28:59.101Z,4.10
2018-12-25T01:31:47.822Z,4.00
2018-12-25T01:34:37.003Z,4.10
2018-12-25T01:37:25.713Z,4.10
2018-12-25T01:40:14.423Z,4.10
2018-12-25T01:43:03.126Z,4.10
2018-12-25T01:45:51.836Z,4.10
2018-12-25T01:48:41.217Z,4.00
2018-12-25T01:51:29.952Z,4.00
2018-12-25T01:54:18.691Z,4.00
2018-12-25T01:57:07.420Z,4.10
2018-12-25T01:59:56.162Z,4.10
2018-12-25T02:02:44.877Z,4.10
2018-12-25T02:05:33.590Z,4.10
2018-12-25T02:08:22.289Z,4.10
2018-12-25T02:11:11.007Z,4.10
2018-12-25T02:13:59.722Z,4.20
2018-12-25T02:16:48.705Z,4.20
2018-12-25T02:19:40.371Z,4.20
2018-12-25T02:22:28.374Z,4.20
2018-12-25T02:25:13.938Z,4.20
2018-12-25T02:28:02.647Z,4.20
2018-12-25T02:30:51.356Z,4.30
2018-12-25T02:33:20.720Z,4.30
2018-12-25T02:38:57.853Z,4.30
2018-12-25T02:41:46.569Z,4.30
2018-12-25T02:44:35.288Z,4.40
2018-12-25T02:47:24.008Z,4.40
2018-12-25T02:49:53.398Z,4.40
2018-12-25T02:52:42.145Z,4.40
2018-12-25T02:55:30.851Z,4.50
2018-12-25T02:58:19.563Z,4.40
2018-12-25T03:01:08.278Z,4.50
2018-12-25T03:03:56.990Z,4.50
2018-12-25T03:06:45.706Z,4.50
2018-12-25T03:09:34.744Z,4.50
2018-12-25T03:12:23.461Z,4.50
2018-12-25T03:15:12.161Z,4.50
2018-12-25T03:18:00.886Z,4.50
2018-12-25T03:20:49.604Z,4.60
2018-12-25T03:27:23.152Z,4.60
2018-12-25T03:30:11.857Z,4.60
2018-12-25T03:33:00.583Z,4.60
2018-12-25T03:35:49.576Z,4.60
2018-12-25T03:38:38.560Z,4.60
2018-12-25T03:41:27.455Z,4.70
2018-12-25T03:44:16.188Z,4.70
2018-12-25T03:47:04.893Z,4.70
2018-12-25T03:49:53.908Z,4.70
2018-12-25T03:52:42.632Z,4.70
2018-12-25T03:55:31.357Z,4.80
2018-12-25T03:58:20.051Z,4.80
2018-12-25T04:01:08.984Z,4.80
2018-12-25T04:03:58.043Z,4.90
2018-12-25T04:06:46.747Z,4.90
2018-12-25T04:09:35.627Z,4.90
2018-12-25T04:12:24.337Z,5.00
2018-12-25T04:15:13.061Z,5.00
2018-12-25T04:18:01.779Z,5.00
2018-12-25T04:20:50.488Z,5.00
2018-12-25T04:23:39.238Z,5.10
2018-12-25T04:26:20.995Z,5.10
2018-12-25T04:29:09.730Z,5.10
2018-12-25T04:31:58.450Z,5.10
2018-12-25T04:34:47.194Z,5.20
2018-12-25T04:37:35.902Z,5.20
2018-12-25T04:40:24.623Z,5.20
2018-12-25T04:43:13.328Z,5.20
2018-12-25T04:46:02.325Z,5.20
2018-12-25T04:48:51.319Z,5.20
2018-12-25T04:51:40.028Z,5.20
2018-12-25T04:54:28.722Z,5.20
2018-12-25T04:57:17.438Z,5.20
2018-12-25T05:03:24.326Z,5.20
2018-12-25T05:06:13.878Z,5.20
2018-12-25T05:09:02.651Z,5.30
2018-12-25T05:11:51.363Z,5.30
2018-12-25T05:14:40.085Z,5.60
2018-12-25T05:17:28.801Z,5.30
2018-12-25T05:20:17.498Z,5.30
2018-12-25T05:23:06.239Z,5.30
2018-12-25T05:25:35.618Z,5.30
2018-12-25T05:28:24.321Z,5.30
2018-12-25T05:31:13.318Z,5.30
2018-12-25T05:34:02.031Z,5.30
2018-12-25T05:36:31.472Z,5.30
2018-12-25T05:39:01.095Z,5.30
2018-12-25T05:41:51.829Z,5.40
2018-12-25T05:44:40.630Z,5.40
2018-12-25T05:47:29.356Z,5.40
2018-12-25T05:50:18.357Z,5.40
2018-12-25T05:53:07.062Z,5.40
2018-12-25T05:55:56.443Z,5.40
2018-12-25T05:58:45.508Z,5.40
2018-12-25T06:01:34.463Z,5.40
2018-12-25T06:04:23.174Z,5.40
2018-12-25T06:07:11.884Z,5.40
2018-12-25T06:10:00.917Z,5.40
2018-12-25T06:12:49.626Z,5.40
2018-12-25T06:15:38.327Z,5.40
2018-12-25T06:18:27.034Z,5.40
2018-12-25T06:21:15.740Z,5.40
2018-12-25T06:23:45.131Z,5.50
2018-12-25T06:26:14.497Z,5.40
2018-12-25T06:29:03.225Z,5.50
2018-12-25T06:31:51.922Z,5.50
2018-12-25T06:34:40.680Z,5.50
2018-12-25T06:37:29.376Z,5.50
2018-12-25T06:40:18.112Z,5.50
2018-12-25T06:43:06.837Z,5.50
2018-12-25T06:45:55.558Z,5.50
2018-12-25T06:48:44.281Z,5.50
2018-12-25T06:51:32.973Z,5.60
2018-12-25T06:54:22.038Z,5.60
2018-12-25T06:57:10.761Z,5.60
2018-12-25T06:59:59.480Z,5.60
2018-12-25T07:02:48.495Z,5.60
2018-12-25T07:05:37.223Z,5.60
2018-12-25T07:08:25.927Z,5.60
2018-12-25T07:11:14.648Z,5.60
2018-12-25T07:14:03.350Z,5.60
2018-12-25T07:16:52.062Z,5.60
2018-12-25T07:19:40.785Z,5.60
2018-12-25T07:22:29.509Z,5.60
2018-12-25T07:25:11.550Z,5.60
2018-12-25T07:28:00.263Z,5.60
2018-12-25T07:30:48.980Z,5.60
2018-12-25T07:33:37.681Z,5.60
2018-12-25T07:36:07.067Z,5.60
2018-12-25T07:38:55.791Z,5.50
2018-12-25T07:41:44.523Z,5.50
2018-12-25T07:44:33.242Z,5.50
2018-12-25T07:47:21.965Z,5.50
2018-12-25T07:50:10.667Z,5.50
2018-12-25T07:52:59.407Z,5.50
2018-12-25T07:55:48.371Z,5.40
2018-12-25T07:58:37.080Z,5.40
2018-12-25T08:01:25.814Z,5.40
2018-12-25T08:04:14.547Z,5.40
2018-12-25T08:07:03.271Z,5.40
2018-12-25T08:09:51.989Z,5.40
2018-12-25T08:12:40.718Z,5.40
2018-12-25T08:15:29.434Z,5.40
2018-12-25T08:18:18.160Z,5.40
2018-12-25T08:21:06.871Z,5.50
2018-12-25T08:23:55.893Z,5.50
2018-12-25T08:26:38.170Z,5.50
2018-12-25T08:29:26.922Z,5.50
2018-12-25T08:32:15.647Z,5.50
2018-12-25T08:35:04.424Z,5.60
2018-12-25T08:37:53.158Z,5.60
2018-12-25T08:40:41.874Z,5.70
2018-12-25T08:43:30.606Z,5.80
2018-12-25T08:46:19.319Z,6.00
2018-12-25T08:49:08.106Z,6.10
2018-12-25T08:51:56.810Z,6.30
2018-12-25T08:54:45.558Z,6.40
2018-12-25T08:57:54.921Z,6.50
2018-12-25T09:00:44.034Z,6.60
2018-12-25T09:03:32.766Z,6.60
2018-12-25T09:06:21.533Z,6.60
2018-12-25T09:09:10.247Z,6.70
2018-12-25T09:11:58.961Z,6.70
2018-12-25T09:14:47.705Z,6.80
2018-12-25T09:17:36.399Z,6.80
2018-12-25T09:20:25.131Z,6.80
2018-12-25T09:23:13.863Z,6.80
2018-12-25T09:25:55.388Z,6.80
2018-12-25T09:28:44.116Z,6.90
2018-12-25T09:31:32.833Z,7.00
2018-12-25T09:34:21.670Z,7.20
2018-12-25T09:36:51.312Z,7.50
2018-12-25T09:39:40.314Z,7.80
2018-12-25T09:42:29.041Z,8.20
2018-12-25T09:44:58.428Z,8.60
2018-12-25T09:47:47.135Z,8.80
2018-12-25T09:50:35.863Z,9.00
2018-12-25T09:53:24.876Z,9.10
2018-12-25T09:56:13.652Z,9.20
2018-12-25T09:59:02.366Z,9.20
2018-12-25T10:01:51.096Z,9.60
2018-12-25T10:04:39.864Z,9.20
2018-12-25T10:13:23.558Z,9.30
2018-12-25T10:16:12.284Z,9.30
2018-12-25T10:18:41.924Z,9.40
2018-12-25T10:21:30.655Z,9.40
2018-12-25T10:24:19.358Z,9.30
2018-12-25T10:27:02.315Z,9.30
2018-12-25T10:29:51.031Z,9.30
2018-12-25T10:32:39.766Z,9.20
2018-12-25T10:35:28.476Z,9.20
2018-12-25T10:38:17.195Z,9.10
2018-12-25T10:44:32.985Z,9.00
2018-12-25T10:47:21.760Z,9.00
2018-12-25T10:50:10.473Z,8.90
2018-12-25T10:52:59.507Z,8.90
2018-12-25T10:55:48.220Z,8.90
2018-12-25T10:58:36.947Z,8.90
2018-12-25T11:01:25.721Z,8.80
2018-12-25T11:04:14.441Z,9.30
2018-12-25T11:07:03.156Z,8.90
2018-12-25T11:09:51.884Z,8.90
2018-12-25T11:12:40.897Z,8.90
2018-12-25T11:15:29.614Z,8.90
2018-12-25T11:18:18.643Z,8.90
2018-12-25T11:21:07.363Z,9.00
2018-12-25T11:23:56.082Z,9.00
2018-12-25T11:26:37.769Z,9.00
2018-12-25T11:29:26.650Z,9.00
2018-12-25T11:32:15.370Z,8.90
2018-12-25T11:38:19.494Z,8.90
2018-12-25T11:41:08.254Z,8.90
2018-12-25T11:43:57.289Z,8.90
2018-12-25T11:46:45.996Z,9.00
2018-12-25T11:49:34.729Z,9.50
2018-12-25T11:52:28.370Z,9.10
2018-12-25T11:55:14.577Z,9.20
2018-12-25T11:58:03.292Z,9.50
2018-12-25T12:00:52.016Z,9.40
2018-12-25T12:03:40.759Z,9.50
2018-12-25T12:06:29.476Z,9.30
2018-12-25T12:09:18.423Z,9.30
2018-12-25T12:12:07.163Z,9.50
2018-12-25T12:14:55.872Z,9.30
2018-12-25T12:17:44.846Z,9.30
2018-12-25T12:20:33.866Z,9.60
2018-12-25T12:23:22.572Z,9.10
2018-12-25T12:26:04.059Z,9.10
2018-12-25T12:28:52.777Z,9.00
2018-12-25T12:31:41.536Z,9.00
2018-12-25T12:34:30.243Z,9.00
2018-12-25T12:37:18.993Z,9.00
2018-12-25T12:40:08.180Z,9.00
2018-12-25T12:42:56.905Z,9.00
2018-12-25T12:45:45.626Z,9.10
2018-12-25T12:48:34.355Z,9.30
2018-12-25T12:51:23.062Z,9.30
2018-12-25T12:53:52.453Z,9.10
2018-12-25T12:56:41.228Z,9.10
2018-12-25T12:59:30.202Z,9.00
2018-12-25T13:02:18.938Z,9.00
2018-12-25T13:05:07.992Z,9.00
2018-12-25T13:07:56.710Z,9.00
2018-12-25T13:10:45.692Z,9.00
2018-12-25T13:13:34.404Z,9.00
2018-12-25T13:16:23.121Z,8.90
2018-12-25T13:19:12.166Z,8.90
2018-12-25T13:22:00.880Z,8.90
2018-12-25T13:24:49.610Z,8.80
2018-12-25T13:27:31.456Z,8.80
2018-12-25T13:30:01.986Z,9.20
2018-12-25T13:36:00.080Z,8.60
2018-12-25T13:38:48.882Z,8.50
2018-12-25T13:44:26.180Z,8.40
2018-12-25T13:47:14.928Z,8.30
2018-12-25T13:50:24.261Z,8.20
2018-12-25T13:53:13.057Z,8.20
2018-12-25T13:56:08.579Z,8.10
2018-12-25T13:58:57.290Z,8.00
2018-12-25T14:01:46.046Z,8.00
2018-12-25T14:04:34.778Z,8.00
2018-12-25T14:07:23.493Z,8.00
2018-12-25T14:10:12.503Z,7.90
2018-12-25T14:13:01.504Z,7.90
2018-12-25T14:15:50.238Z,7.90
2018-12-25T14:18:38.957Z,8.00
2018-12-25T14:21:27.699Z,8.00
2018-12-25T14:24:16.441Z,8.00
2018-12-25T14:26:58.333Z,8.00
2018-12-25T14:29:47.303Z,8.00
2018-12-25T14:32:36.028Z,8.00
2018-12-25T14:35:24.831Z,8.00
2018-12-25T14:38:13.551Z,8.00
2018-12-25T14:41:02.272Z,8.00
2018-12-25T14:43:50.986Z,8.10
2018-12-25T14:46:39.748Z,8.00
2018-12-25T14:49:28.558Z,7.90
2018-12-25T14:52:17.267Z,7.90
2018-12-25T14:55:05.983Z,7.80
2018-12-25T14:57:55.618Z,7.70
2018-12-25T15:00:44.371Z,7.60
2018-12-25T15:03:33.079Z,7.50
2018-12-25T15:06:22.090Z,7.40
2018-12-25T15:09:11.127Z,7.40
2018-12-25T15:11:59.847Z,7.30
2018-12-25T15:14:48.883Z,7.20
2018-12-25T15:17:37.704Z,7.10
2018-12-25T15:20:26.417Z,7.10
2018-12-25T15:23:15.156Z,7.00
2018-12-25T15:25:56.620Z,6.90
2018-12-25T15:28:45.360Z,6.80
2018-12-25T15:31:34.990Z,6.80
2018-12-25T15:34:23.709Z,6.70
2018-12-25T15:40:27.089Z,6.50
2018-12-25T15:43:15.834Z,6.40
2018-12-25T15:46:04.568Z,6.20
2018-12-25T15:48:53.271Z,6.10
2018-12-25T15:51:42.012Z,6.10
2018-12-25T15:54:30.735Z,5.90
2018-12-25T15:57:19.461Z,5.80
2018-12-25T16:00:27.922Z,5.70
2018-12-25T16:03:16.642Z,5.60
2018-12-25T16:06:05.353Z,5.50
2018-12-25T16:08:54.065Z,5.40
2018-12-25T16:11:43.072Z,5.40
2018-12-25T16:14:31.799Z,5.30
2018-12-25T16:17:20.504Z,5.10
2018-12-25T16:23:24.880Z,5.00
2018-12-25T16:26:06.573Z,4.90
2018-12-25T16:31:50.434Z,4.80
2018-12-25T16:34:39.243Z,4.70
2018-12-25T16:37:27.967Z,4.70
2018-12-25T16:40:16.678Z,4.60
2018-12-25T16:43:05.397Z,4.60
2018-12-25T16:45:54.095Z,4.60
2018-12-25T16:48:43.090Z,4.60
2018-12-25T16:51:31.800Z,4.50
2018-12-25T16:54:20.516Z,4.50
2018-12-25T16:57:11.052Z,4.50
2018-12-25T16:59:59.681Z,4.40
2018-12-25T17:02:48.403Z,4.40
2018-12-25T17:05:37.116Z,4.30
2018-12-25T17:08:26.080Z,4.30
2018-12-25T17:11:14.797Z,4.20
2018-12-25T17:13:45.338Z,4.20
2018-12-25T17:16:34.094Z,4.10
2018-12-25T17:19:22.819Z,4.10
2018-12-25T17:22:11.854Z,4.00
2018-12-25T17:25:00.573Z,4.00
2018-12-25T17:27:42.092Z,3.90
2018-12-25T17:30:30.824Z,3.80
2018-12-25T17:33:19.539Z,3.80
2018-12-25T17:36:08.266Z,3.70
2018-12-25T17:38:56.984Z,3.70
2018-12-25T17:41:45.717Z,3.60
2018-12-25T17:44:34.447Z,3.60
2018-12-25T17:47:23.152Z,3.60
2018-12-25T17:50:11.875Z,3.50
2018-12-25T17:53:00.583Z,3.50
2018-12-25T17:55:49.515Z,3.50
2018-12-25T17:58:38.239Z,3.40
2018-12-25T18:01:26.949Z,3.40
2018-12-25T18:04:15.666Z,3.30
2018-12-25T18:07:04.403Z,3.30
2018-12-25T18:09:53.115Z,3.20
2018-12-25T18:12:41.861Z,3.10
2018-12-25T18:15:31.610Z,3.10
2018-12-25T18:18:20.316Z,3.10
2018-12-25T18:21:09.034Z,3.10
2018-12-25T18:23:57.765Z,3.00
2018-12-25T18:26:39.326Z,3.00
2018-12-25T18:29:28.035Z,3.00
2018-12-25T18:32:16.755Z,2.90
2018-12-25T18:35:05.805Z,2.90
2018-12-25T18:37:54.512Z,2.90
2018-12-25T18:40:43.237Z,2.90
2018-12-25T18:43:31.951Z,2.80
2018-12-25T18:46:20.676Z,2.80
2018-12-25T18:49:10.212Z,2.70
2018-12-25T18:52:18.482Z,2.70
2018-12-25T18:54:47.860Z,2.70
2018-12-25T19:00:24.978Z,2.60
2018-12-25T19:03:13.749Z,2.50
2018-12-25T19:05:43.207Z,2.50
2018-12-25T19:08:32.216Z,2.50
2018-12-25T19:14:15.224Z,2.50
2018-12-25T19:17:03.896Z,2.50
2018-12-25T19:19:52.607Z,2.40
2018-12-25T19:22:22.696Z,2.40
2018-12-25T19:25:11.433Z,2.40
2018-12-25T19:27:53.085Z,2.30
2018-12-25T19:30:41.806Z,2.30
2018-12-25T19:33:30.511Z,2.30
2018-12-25T19:36:19.233Z,2.30
2018-12-25T19:38:48.608Z,2.30
2018-12-25T19:41:37.322Z,2.30
2018-12-25T19:44:26.039Z,2.30
2018-12-25T19:47:14.751Z,2.30
2018-12-25T19:52:58.630Z,2.30
2018-12-25T19:55:47.349Z,2.30
2018-12-25T19:58:36.057Z,2.30
2018-12-25T20:01:24.766Z,2.30
2018-12-25T20:04:34.383Z,2.30
2018-12-25T20:08:05.707Z,2.30
2018-12-25T20:11:33.072Z,2.30
2018-12-25T20:18:18.987Z,2.30
2018-12-25T20:21:46.359Z,2.20
2018-12-25T20:24:56.727Z,2.20
2018-12-25T20:27:57.764Z,2.20
2018-12-25T20:34:43.993Z,2.10
2018-12-25T20:37:54.063Z,2.10
2018-12-25T20:41:03.639Z,2.10
2018-12-25T20:44:30.990Z,2.00
2018-12-25T20:47:40.587Z,2.00
2018-12-25T20:51:07.912Z,2.00
2018-12-25T20:54:17.491Z,2.00
2018-12-25T20:57:27.773Z,2.00
2018-12-25T21:00:55.125Z,2.00
2018-12-25T21:04:22.490Z,2.00
2018-12-25T21:14:15.541Z,1.90
2018-12-25T21:17:25.116Z,1.90
2018-12-25T21:24:09.436Z,1.90
2018-12-25T21:27:10.472Z,1.90
2018-12-25T21:30:20.087Z,1.90
2018-12-25T21:33:08.894Z,1.90
2018-12-25T21:35:57.588Z,1.80
2018-12-25T21:38:46.331Z,1.80
2018-12-25T21:45:04.434Z,1.80
2018-12-25T21:48:28.845Z,1.80
2018-12-25T21:51:07.282Z,1.80
2018-12-25T21:57:11.152Z,1.80
2018-12-25T21:59:59.943Z,1.80
2018-12-25T22:03:09.299Z,1.80
2018-12-25T22:05:58.023Z,1.80
2018-12-25T22:09:06.086Z,1.80
2018-12-25T22:11:54.783Z,1.80
2018-12-25T22:14:43.512Z,1.80
2018-12-25T22:17:12.889Z,1.80
2018-12-25T22:20:01.673Z,1.80
2018-12-25T22:22:50.388Z,1.70
2018-12-25T22:25:39.232Z,1.70
2018-12-25T22:28:28.199Z,1.70
2018-12-25T22:31:16.906Z,1.70
2018-12-25T22:34:05.616Z,1.70
2018-12-25T22:36:54.341Z,1.60
2018-12-25T22:39:43.093Z,1.60
2018-12-25T22:42:32.038Z,1.60
2018-12-25T22:45:20.744Z,1.60
2018-12-25T22:48:09.712Z,1.50
2018-12-25T22:50:58.444Z,1.50
2018-12-25T22:53:47.144Z,1.50
2018-12-25T22:56:35.871Z,1.50
2018-12-25T22:59:24.573Z,1.40
2018-12-25T23:02:13.297Z,1.40
2018-12-25T23:04:42.687Z,1.40
2018-12-25T23:07:31.401Z,1.40
2018-12-25T23:10:20.122Z,1.40
2018-12-25T23:13:08.837Z,1.40
2018-12-25T23:15:57.636Z,1.40
2018-12-25T23:18:46.361Z,1.30
2018-12-25T23:21:35.125Z,1.30
2018-12-25T23:24:23.827Z,1.30
2018-12-25T23:27:05.452Z,1.30
2018-12-25T23:29:54.507Z,1.30
2018-12-25T23:32:43.216Z,1.30
2018-12-25T23:35:31.928Z,1.30
2018-12-25T23:38:20.933Z,1.30
2018-12-25T23:41:09.600Z,1.30
2018-12-25T23:43:58.323Z,1.30
2018-12-25T23:46:47.047Z,1.30
2018-12-25T23:49:35.755Z,1.30
2018-12-25T23:52:24.484Z,1.30
2018-12-25T23:55:13.439Z,1.30
2018-12-25T23:57:42.815Z,1.30
